createdAt,value
2022-12-22T00:00:21.627Z,0.26
2022-12-22T00:01:48.002Z,0.24
2022-12-22T00:03:10.173Z,0.22
2022-12-22T00:04:30.458Z,0.21
2022-12-22T00:05:51.103Z,0.18
2022-12-22T00:07:11.551Z,0.19
2022-12-22T00:08:31.990Z,0.18
2022-12-22T00:09:52.529Z,0.21
2022-12-22T00:11:15.132Z,0.21
2022-12-22T00:12:37.145Z,0.13
2022-12-22T00:13:59.676Z,0.18
2022-12-22T00:15:20.019Z,0.22
2022-12-22T00:16:45.738Z,0.22
2022-12-22T00:18:06.267Z,0.16
2022-12-22T00:19:32.776Z,0.11
2022-12-22T00:20:53.295Z,0.05
2022-12-22T00:22:13.610Z,0.21
2022-12-22T00:23:34.218Z,0.19
2022-12-22T00:24:54.666Z,0.19
2022-12-22T00:26:16.157Z,0.23
2022-12-22T00:27:47.162Z,0.19
2022-12-22T00:29:07.614Z,0.17
2022-12-22T00:30:32.758Z,0.18
2022-12-22T00:31:53.169Z,0.16
2022-12-22T00:33:13.610Z,0.13
2022-12-22T00:34:37.218Z,-0.01
2022-12-22T00:35:57.752Z,0.06
2022-12-22T00:37:18.412Z,0.07
2022-12-22T00:38:40.522Z,0.11
2022-12-22T00:40:00.932Z,0.11
2022-12-22T00:41:21.329Z,0.09
2022-12-22T00:42:41.711Z,0.08
2022-12-22T00:44:02.266Z,0.07
2022-12-22T00:45:22.872Z,0.06
2022-12-22T00:46:43.443Z,0.07
2022-12-22T00:48:04.993Z,0.09
2022-12-22T00:49:24.889Z,0.09
2022-12-22T00:50:50.600Z,0.10
2022-12-22T00:52:11.026Z,0.05
2022-12-22T00:53:31.536Z,0.06
2022-12-22T00:54:52.077Z,0.11
2022-12-22T00:56:12.530Z,0.14
2022-12-22T00:57:38.144Z,0.14
2022-12-22T00:58:58.713Z,0.06
2022-12-22T01:00:19.158Z,0.02
2022-12-22T01:01:39.680Z,0.02
2022-12-22T01:03:00.350Z,0.01
2022-12-22T01:04:20.708Z,-0.01
2022-12-22T01:05:41.182Z,-0.01
2022-12-22T01:07:01.685Z,-0.02
2022-12-22T01:08:22.151Z,0.00
2022-12-22T01:09:42.622Z,0.01
2022-12-22T01:11:03.107Z,-0.05
2022-12-22T01:12:29.846Z,0.04
2022-12-22T01:13:50.827Z,0.02
2022-12-22T01:15:11.306Z,0.01
2022-12-22T01:16:31.833Z,0.05
2022-12-22T01:17:52.327Z,-0.04
2022-12-22T01:19:12.834Z,0.06
2022-12-22T01:20:33.249Z,0.05
2022-12-22T01:21:53.952Z,0.04
2022-12-22T01:23:14.474Z,0.04
2022-12-22T01:24:36.916Z,-0.02
2022-12-22T01:25:57.577Z,-0.02
2022-12-22T01:27:18.039Z,-0.10
2022-12-22T01:28:38.595Z,-0.04
2022-12-22T01:29:59.061Z,-0.05
2022-12-22T01:31:35.593Z,-0.09
2022-12-22T01:32:56.096Z,-0.06
2022-12-22T01:34:16.578Z,-0.06
2022-12-22T01:35:41.893Z,-0.07
2022-12-22T01:37:01.950Z,-0.17
2022-12-22T01:38:22.358Z,-0.15
2022-12-22T01:39:42.822Z,-0.16
2022-12-22T01:41:03.203Z,-0.21
2022-12-22T01:42:23.775Z,-0.19
2022-12-22T01:43:46.817Z,-0.25
2022-12-22T01:45:07.243Z,-0.21
2022-12-22T01:46:47.637Z,-0.20
2022-12-22T01:48:08.081Z,-0.19
2022-12-22T01:49:37.170Z,-0.27
2022-12-22T01:50:57.701Z,-0.20
2022-12-22T01:52:18.106Z,-0.25
2022-12-22T01:53:41.657Z,-0.21
2022-12-22T01:55:02.497Z,-0.21
2022-12-22T01:56:23.028Z,-0.32
2022-12-22T01:57:43.444Z,-0.25
2022-12-22T01:59:09.045Z,-0.34
2022-12-22T02:00:30.105Z,-0.25
2022-12-22T02:01:51.619Z,-0.26
2022-12-22T02:03:11.675Z,-0.30
2022-12-22T02:04:32.196Z,-0.30
2022-12-22T02:05:58.687Z,-0.41
2022-12-22T02:07:30.303Z,-0.33
2022-12-22T02:08:55.231Z,-0.42
2022-12-22T02:10:34.928Z,-0.42
2022-12-22T02:12:53.518Z,-0.42
2022-12-22T02:14:37.878Z,-0.47
2022-12-22T02:16:07.891Z,-0.51
2022-12-22T02:17:44.056Z,-0.67
2022-12-22T02:19:13.190Z,-0.66
2022-12-22T02:20:53.289Z,-0.65
2022-12-22T02:22:37.298Z,-0.65
2022-12-22T02:24:14.596Z,-0.76
2022-12-22T02:25:42.243Z,-0.70
2022-12-22T02:27:08.727Z,-0.65
2022-12-22T02:28:31.235Z,-0.69
2022-12-22T02:29:56.295Z,-0.62
2022-12-22T02:31:16.651Z,-0.61
2022-12-22T02:32:37.114Z,-0.58
2022-12-22T02:33:57.605Z,-0.59
2022-12-22T02:35:18.125Z,-0.61
2022-12-22T02:36:57.033Z,-0.59
2022-12-22T02:38:23.147Z,-0.58
2022-12-22T02:40:01.568Z,-0.60
2022-12-22T02:41:40.409Z,-0.62
2022-12-22T02:43:45.566Z,-0.63
2022-12-22T02:45:38.445Z,-0.65
2022-12-22T02:47:32.873Z,-0.72
2022-12-22T02:49:33.302Z,-0.74
2022-12-22T02:51:05.711Z,-0.73
2022-12-22T02:52:41.133Z,-0.69
2022-12-22T02:54:02.078Z,-0.69
2022-12-22T02:55:23.673Z,-0.67
2022-12-22T02:56:44.109Z,-0.75
2022-12-22T02:58:04.612Z,-0.85
2022-12-22T02:59:25.032Z,-0.87
2022-12-22T03:00:45.641Z,-0.82
2022-12-22T03:02:06.650Z,-0.80
2022-12-22T03:03:27.208Z,-0.85
2022-12-22T03:04:47.430Z,-0.89
2022-12-22T03:06:07.828Z,-0.71
2022-12-22T03:07:28.358Z,-0.75
2022-12-22T03:08:48.830Z,-0.68
2022-12-22T03:10:09.403Z,-0.68
2022-12-22T03:11:29.939Z,-0.66
2022-12-22T03:12:50.376Z,-0.65
2022-12-22T03:14:10.762Z,-0.64
2022-12-22T03:15:31.273Z,-0.69
2022-12-22T03:16:51.749Z,-0.66
2022-12-22T03:18:12.352Z,-0.62
2022-12-22T03:19:32.947Z,-0.67
2022-12-22T03:20:53.574Z,-0.71
2022-12-22T03:22:14.115Z,-0.66
2022-12-22T03:23:34.669Z,-0.64
2022-12-22T03:24:55.190Z,-0.64
2022-12-22T03:25:57.178Z,-0.66
2022-12-22T03:26:58.900Z,-0.63
2022-12-22T03:28:06.107Z,-0.80
2022-12-22T03:29:07.862Z,-0.69
2022-12-22T03:30:09.961Z,-0.67
2022-12-22T03:31:12.273Z,-0.71
2022-12-22T03:32:13.981Z,-0.65
2022-12-22T03:33:15.666Z,-0.79
2022-12-22T03:34:17.445Z,-0.64
2022-12-22T03:35:19.159Z,-0.64
2022-12-22T03:36:20.946Z,-0.62
2022-12-22T03:37:22.651Z,-0.59
2022-12-22T03:38:24.483Z,-0.59
2022-12-22T03:39:26.201Z,-0.67
2022-12-22T03:40:27.900Z,-0.72
2022-12-22T03:41:48.483Z,-0.82
2022-12-22T03:43:08.837Z,-0.75
2022-12-22T03:44:29.299Z,-0.71
2022-12-22T03:45:49.824Z,-0.70
2022-12-22T03:46:51.552Z,-0.79
2022-12-22T03:47:53.256Z,-0.76
2022-12-22T03:49:12.153Z,-0.79
2022-12-22T03:50:14.070Z,-0.74
2022-12-22T03:51:15.753Z,-0.66
2022-12-22T03:52:17.516Z,-0.66
2022-12-22T03:53:19.212Z,-0.75
2022-12-22T03:54:23.531Z,-0.62
2022-12-22T03:55:25.260Z,-0.64
2022-12-22T03:56:27.649Z,-0.62
2022-12-22T03:57:29.416Z,-0.62
2022-12-22T03:58:31.118Z,-0.66
2022-12-22T03:59:32.872Z,-0.72
2022-12-22T04:00:34.573Z,-0.73
2022-12-22T04:01:44.536Z,-0.65
2022-12-22T04:02:46.535Z,-0.65
2022-12-22T04:03:49.541Z,-0.62
2022-12-22T04:04:51.245Z,-0.71
2022-12-22T04:05:53.160Z,-0.70
2022-12-22T04:06:55.492Z,-0.68
2022-12-22T04:07:57.203Z,-0.66
2022-12-22T04:08:58.935Z,-0.67
2022-12-22T04:10:19.472Z,-0.75
2022-12-22T04:11:39.976Z,-0.89
2022-12-22T04:12:57.072Z,-0.64
2022-12-22T04:13:59.461Z,-0.78
2022-12-22T04:15:01.173Z,-0.69
2022-12-22T04:16:02.937Z,-0.71
2022-12-22T04:17:06.083Z,-0.67
2022-12-22T04:18:08.182Z,-0.64
2022-12-22T04:19:10.175Z,-0.68
2022-12-22T04:20:12.294Z,-0.64
2022-12-22T04:21:14.024Z,-0.66
2022-12-22T04:22:15.831Z,-0.64
2022-12-22T04:23:17.729Z,-0.61
2022-12-22T04:24:19.442Z,-0.64
2022-12-22T04:25:21.916Z,-0.65
2022-12-22T04:26:25.660Z,-0.64
2022-12-22T04:27:27.386Z,-0.68
2022-12-22T04:28:29.139Z,-0.76
2022-12-22T04:29:30.899Z,-0.77
2022-12-22T04:30:32.601Z,-0.76
2022-12-22T04:31:34.408Z,-0.76
2022-12-22T04:32:36.298Z,-0.81
2022-12-22T04:33:38.170Z,-0.85
2022-12-22T04:34:39.896Z,-0.78
2022-12-22T04:35:41.583Z,-0.77
2022-12-22T04:36:43.297Z,-0.82
2022-12-22T04:37:44.998Z,-0.75
2022-12-22T04:38:46.799Z,-0.74
2022-12-22T04:39:48.505Z,-0.73
2022-12-22T04:40:50.305Z,-0.75
2022-12-22T04:41:52.021Z,-0.78
2022-12-22T04:42:53.727Z,-0.77
2022-12-22T04:43:55.469Z,-0.79
2022-12-22T04:44:57.157Z,-0.84
2022-12-22T04:45:59.083Z,-0.86
2022-12-22T04:47:00.825Z,-0.88
2022-12-22T04:48:02.557Z,-0.81
2022-12-22T04:49:04.249Z,-0.81
2022-12-22T04:50:06.627Z,-0.76
2022-12-22T04:51:08.349Z,-0.77
2022-12-22T04:52:10.181Z,-0.78
2022-12-22T04:53:11.905Z,-0.84
2022-12-22T04:54:13.703Z,-0.93
2022-12-22T04:55:15.447Z,-0.94
2022-12-22T04:56:17.140Z,-0.93
2022-12-22T04:57:19.119Z,-0.87
2022-12-22T04:58:20.970Z,-0.93
2022-12-22T04:59:22.690Z,-0.84
2022-12-22T05:00:24.554Z,-0.82
2022-12-22T05:01:26.550Z,-0.80
2022-12-22T05:02:28.497Z,-0.81
2022-12-22T05:03:30.354Z,-0.85
2022-12-22T05:04:32.508Z,-0.83
2022-12-22T05:05:35.540Z,-0.84
2022-12-22T05:06:37.237Z,-0.80
2022-12-22T05:07:39.047Z,-0.80
2022-12-22T05:08:41.124Z,-0.76
2022-12-22T05:09:42.839Z,-0.86
2022-12-22T05:10:44.787Z,-0.87
2022-12-22T05:11:46.471Z,-0.81
2022-12-22T05:12:57.388Z,-0.83
2022-12-22T05:14:05.201Z,-0.85
2022-12-22T05:15:09.149Z,-0.82
2022-12-22T05:16:14.078Z,-0.79
2022-12-22T05:17:15.866Z,-0.81
2022-12-22T05:18:17.564Z,-0.80
2022-12-22T05:19:24.957Z,-0.80
2022-12-22T05:20:31.268Z,-0.79
2022-12-22T05:21:33.613Z,-0.78
2022-12-22T05:22:35.340Z,-0.74
2022-12-22T05:23:37.150Z,-0.79
2022-12-22T05:24:38.923Z,-0.70
2022-12-22T05:25:40.635Z,-0.68
2022-12-22T05:26:42.320Z,-0.70
2022-12-22T05:27:44.867Z,-0.71
2022-12-22T05:28:48.015Z,-0.71
2022-12-22T05:29:49.753Z,-0.74
2022-12-22T05:30:53.592Z,-0.70
2022-12-22T05:31:55.358Z,-0.71
2022-12-22T05:32:57.059Z,-0.70
2022-12-22T05:33:58.787Z,-0.75
2022-12-22T05:35:00.668Z,-0.74
2022-12-22T05:36:02.743Z,-0.74
2022-12-22T05:37:04.445Z,-0.76
2022-12-22T05:38:06.232Z,-0.77
2022-12-22T05:39:08.222Z,-0.75
2022-12-22T05:40:11.808Z,-0.75
2022-12-22T05:41:13.949Z,-0.74
2022-12-22T05:42:35.789Z,-0.70
2022-12-22T05:43:37.925Z,-0.69
2022-12-22T05:44:39.620Z,-0.68
2022-12-22T05:45:41.473Z,-0.79
2022-12-22T05:46:43.286Z,-0.73
2022-12-22T05:47:48.995Z,-0.72
2022-12-22T05:48:50.700Z,-0.78
2022-12-22T05:49:52.417Z,-0.76
2022-12-22T05:50:54.113Z,-0.76
2022-12-22T05:51:56.781Z,-0.80
2022-12-22T05:52:59.385Z,-0.76
2022-12-22T05:54:01.192Z,-0.78
2022-12-22T05:55:04.278Z,-0.77
2022-12-22T05:56:06.568Z,-0.81
2022-12-22T05:57:08.300Z,-0.80
2022-12-22T05:58:10.008Z,-0.75
2022-12-22T05:59:12.385Z,-0.81
2022-12-22T06:00:15.851Z,-0.80
2022-12-22T06:01:17.557Z,-0.78
2022-12-22T06:02:19.383Z,-0.75
2022-12-22T06:03:21.366Z,-0.74
2022-12-22T06:04:23.276Z,-0.81
2022-12-22T06:05:25.451Z,-0.73
2022-12-22T06:06:27.239Z,-0.74
2022-12-22T06:07:28.976Z,-0.81
2022-12-22T06:08:30.841Z,-0.72
2022-12-22T06:09:32.580Z,-0.76
2022-12-22T06:10:34.285Z,-0.82
2022-12-22T06:11:35.974Z,-0.84
2022-12-22T06:12:37.735Z,-0.84
2022-12-22T06:13:39.453Z,-0.87
2022-12-22T06:14:41.179Z,-0.93
2022-12-22T06:15:43.144Z,-0.87
2022-12-22T06:16:44.896Z,-0.86
2022-12-22T06:17:46.611Z,-0.86
2022-12-22T06:18:48.292Z,-0.84
2022-12-22T06:19:50.015Z,-0.75
2022-12-22T06:20:53.568Z,-0.76
2022-12-22T06:21:55.322Z,-0.81
2022-12-22T06:22:57.289Z,-0.95
2022-12-22T06:23:59.696Z,-0.88
2022-12-22T06:25:01.498Z,-0.97
2022-12-22T06:26:03.229Z,-0.85
2022-12-22T06:27:05.695Z,-0.86
2022-12-22T06:28:07.447Z,-0.86
2022-12-22T06:29:09.248Z,-0.91
2022-12-22T06:30:11.755Z,-0.84
2022-12-22T06:31:13.520Z,-0.81
2022-12-22T06:32:15.271Z,-0.78
2022-12-22T06:33:17.028Z,-0.78
2022-12-22T06:34:19.082Z,-0.75
2022-12-22T06:35:20.838Z,-0.75
2022-12-22T06:36:22.539Z,-0.74
2022-12-22T06:37:24.249Z,-0.66
2022-12-22T06:38:27.347Z,-0.71
2022-12-22T06:39:29.326Z,-0.62
2022-12-22T06:40:31.031Z,-0.61
2022-12-22T06:41:51.388Z,-0.60
2022-12-22T06:43:09.578Z,-0.60
2022-12-22T06:44:11.887Z,-0.54
2022-12-22T06:45:13.751Z,-0.64
2022-12-22T06:46:15.504Z,-0.54
2022-12-22T06:47:17.789Z,-0.48
2022-12-22T06:48:20.316Z,-0.47
2022-12-22T06:49:22.546Z,-0.45
2022-12-22T06:50:24.278Z,-0.46
2022-12-22T06:51:26.097Z,-0.39
2022-12-22T06:52:27.892Z,-0.40
2022-12-22T06:53:29.594Z,-0.30
2022-12-22T06:54:31.287Z,-0.22
2022-12-22T06:55:33.053Z,-0.15
2022-12-22T06:56:34.858Z,0.05
2022-12-22T06:57:36.669Z,0.15
2022-12-22T06:58:38.392Z,0.20
2022-12-22T06:59:40.122Z,0.52
2022-12-22T07:00:41.925Z,0.71
2022-12-22T07:01:43.756Z,1.07
2022-12-22T07:02:45.794Z,1.38
2022-12-22T07:03:47.663Z,1.69
2022-12-22T07:04:49.467Z,2.00
2022-12-22T07:05:51.212Z,2.51
2022-12-22T07:06:52.907Z,2.71
2022-12-22T07:07:54.642Z,3.13
2022-12-22T07:08:56.324Z,3.47
2022-12-22T07:09:58.034Z,3.84
2022-12-22T07:10:59.810Z,4.12
2022-12-22T07:12:01.508Z,4.25
2022-12-22T07:13:19.427Z,4.33
2022-12-22T07:14:21.728Z,4.36
2022-12-22T07:15:23.440Z,4.59
2022-12-22T07:16:25.245Z,4.75
2022-12-22T07:17:27.046Z,4.95
2022-12-22T07:18:31.346Z,4.97
2022-12-22T07:19:34.085Z,5.29
2022-12-22T07:20:35.761Z,5.53
2022-12-22T07:21:37.612Z,5.92
2022-12-22T07:22:39.323Z,6.28
2022-12-22T07:23:42.016Z,6.63
2022-12-22T07:24:43.707Z,6.97
2022-12-22T07:25:45.412Z,7.22
2022-12-22T07:26:47.128Z,7.55
2022-12-22T07:27:48.826Z,7.91
2022-12-22T07:28:50.562Z,8.24
2022-12-22T07:29:52.305Z,8.46
2022-12-22T07:30:54.693Z,8.73
2022-12-22T07:31:56.524Z,8.94
2022-12-22T07:32:58.267Z,9.22
2022-12-22T07:34:00.017Z,9.49
2022-12-22T07:35:05.650Z,9.77
2022-12-22T07:36:15.040Z,10.02
2022-12-22T07:37:16.766Z,10.26
2022-12-22T07:38:18.453Z,10.51
2022-12-22T07:39:20.180Z,10.77
2022-12-22T07:40:21.995Z,10.98
2022-12-22T07:41:42.283Z,11.17
2022-12-22T07:42:47.160Z,11.47
2022-12-22T07:43:48.882Z,11.76
2022-12-22T07:44:50.624Z,11.92
2022-12-22T07:45:52.345Z,12.19
2022-12-22T07:46:54.093Z,12.37
2022-12-22T07:48:22.737Z,12.60
2022-12-22T07:49:43.202Z,12.85
2022-12-22T07:50:44.932Z,13.10
2022-12-22T07:51:46.780Z,13.54
2022-12-22T07:52:48.561Z,13.68
2022-12-22T07:53:50.249Z,13.85
2022-12-22T07:54:51.952Z,14.08
2022-12-22T07:55:53.654Z,14.20
2022-12-22T07:56:55.587Z,14.40
2022-12-22T07:57:57.663Z,14.66
2022-12-22T07:58:59.535Z,14.72
2022-12-22T08:00:01.247Z,14.84
2022-12-22T08:01:03.066Z,14.98
2022-12-22T08:02:04.850Z,15.09
2022-12-22T08:03:06.787Z,15.19
2022-12-22T08:04:10.147Z,15.23
2022-12-22T08:05:12.051Z,15.30
2022-12-22T08:06:13.813Z,15.33
2022-12-22T08:07:15.524Z,15.39
2022-12-22T08:08:17.225Z,15.41
2022-12-22T08:09:21.813Z,15.53
2022-12-22T08:10:23.594Z,15.65
2022-12-22T08:11:25.323Z,15.77
2022-12-22T08:12:28.165Z,15.76
2022-12-22T08:13:30.288Z,15.98
2022-12-22T08:14:32.004Z,16.29
2022-12-22T08:15:33.769Z,16.47
2022-12-22T08:16:35.561Z,16.55
2022-12-22T08:17:37.760Z,16.57
2022-12-22T08:18:40.111Z,16.59
2022-12-22T08:19:41.870Z,16.64
2022-12-22T08:20:51.890Z,16.66
2022-12-22T08:21:53.694Z,16.80
2022-12-22T08:22:57.155Z,16.85
2022-12-22T08:23:58.866Z,16.92
2022-12-22T08:25:00.704Z,16.97
2022-12-22T08:26:11.034Z,17.04
2022-12-22T08:27:19.551Z,17.10
2022-12-22T08:28:25.856Z,17.12
2022-12-22T08:29:36.623Z,16.96
2022-12-22T08:30:38.560Z,16.92
2022-12-22T08:31:41.796Z,17.01
2022-12-22T08:32:48.918Z,16.99
2022-12-22T08:33:50.754Z,17.08
2022-12-22T08:34:53.595Z,17.08
2022-12-22T08:36:01.282Z,16.99
2022-12-22T08:37:12.593Z,17.15
2022-12-22T08:38:14.984Z,17.33
2022-12-22T08:39:20.040Z,17.50
2022-12-22T08:40:25.105Z,17.65
2022-12-22T08:41:47.507Z,17.65
2022-12-22T08:42:53.398Z,17.54
2022-12-22T08:43:55.144Z,17.49
2022-12-22T08:44:56.889Z,17.66
2022-12-22T08:45:58.837Z,17.71
2022-12-22T08:47:00.691Z,17.97
2022-12-22T08:48:02.479Z,18.11
2022-12-22T08:49:04.184Z,18.18
2022-12-22T08:50:06.931Z,18.12
2022-12-22T08:51:08.699Z,18.09
2022-12-22T08:52:17.664Z,18.30
2022-12-22T08:54:02.603Z,18.49
2022-12-22T08:54:42.090Z,18.60
2022-12-22T08:55:52.365Z,18.79
2022-12-22T08:56:54.058Z,18.84
2022-12-22T08:57:56.313Z,18.93
2022-12-22T08:58:58.352Z,19.05
2022-12-22T09:00:00.065Z,19.06
2022-12-22T09:01:01.977Z,19.01
2022-12-22T09:02:05.792Z,18.98
2022-12-22T09:03:07.716Z,18.93
2022-12-22T09:04:09.889Z,18.89
2022-12-22T09:05:11.612Z,18.84
2022-12-22T09:06:13.310Z,18.86
2022-12-22T09:07:16.057Z,18.72
2022-12-22T09:08:17.756Z,18.59
2022-12-22T09:09:19.907Z,18.56
2022-12-22T09:10:21.674Z,18.44
2022-12-22T09:11:24.056Z,18.39
2022-12-22T09:12:25.850Z,18.22
2022-12-22T09:13:27.583Z,18.23
2022-12-22T09:14:30.534Z,18.32
2022-12-22T09:15:32.302Z,18.44
2022-12-22T09:16:35.272Z,18.32
2022-12-22T09:17:37.928Z,17.72
2022-12-22T09:18:39.687Z,17.59
2022-12-22T09:19:41.500Z,17.51
2022-12-22T09:20:43.251Z,17.60
2022-12-22T09:21:45.261Z,17.55
2022-12-22T09:22:48.218Z,17.34
2022-12-22T09:23:50.224Z,17.28
2022-12-22T09:24:51.930Z,16.86
2022-12-22T09:25:54.156Z,16.56
2022-12-22T09:26:55.892Z,16.74
2022-12-22T09:27:57.646Z,16.84
2022-12-22T09:28:59.389Z,16.89
2022-12-22T09:30:01.185Z,17.16
2022-12-22T09:31:04.299Z,17.47
2022-12-22T09:32:06.335Z,17.33
2022-12-22T09:33:08.081Z,17.21
2022-12-22T09:34:16.789Z,17.23
2022-12-22T09:35:19.126Z,17.23
2022-12-22T09:36:25.148Z,16.90
2022-12-22T09:37:26.850Z,16.85
2022-12-22T09:38:29.050Z,16.89
2022-12-22T09:39:30.891Z,16.61
2022-12-22T09:40:32.942Z,16.45
2022-12-22T09:41:47.050Z,16.68
2022-12-22T09:42:48.853Z,16.84
2022-12-22T09:43:50.775Z,17.06
2022-12-22T09:44:52.750Z,17.14
2022-12-22T09:45:55.334Z,17.42
2022-12-22T09:47:00.720Z,17.73
2022-12-22T09:48:02.541Z,17.96
2022-12-22T09:49:06.896Z,18.16
2022-12-22T09:50:17.248Z,18.38
2022-12-22T09:51:26.182Z,18.52
2022-12-22T09:52:42.664Z,18.73
2022-12-22T09:53:46.978Z,18.96
2022-12-22T09:54:49.637Z,19.02
2022-12-22T09:55:52.134Z,19.27
2022-12-22T09:56:53.857Z,19.21
2022-12-22T09:57:56.186Z,19.39
2022-12-22T09:58:58.425Z,19.53
2022-12-22T10:00:14.281Z,19.56
2022-12-22T10:01:54.752Z,19.60
2022-12-22T10:03:20.875Z,19.44
2022-12-22T10:04:58.976Z,19.37
2022-12-22T10:06:21.535Z,19.59
2022-12-22T10:07:33.749Z,19.64
2022-12-22T10:08:37.564Z,19.65
2022-12-22T10:09:50.334Z,19.87
2022-12-22T10:10:56.939Z,19.96
2022-12-22T10:12:01.830Z,20.08
2022-12-22T10:13:05.254Z,19.95
2022-12-22T10:14:06.960Z,20.00
2022-12-22T10:15:16.861Z,20.13
2022-12-22T10:16:28.638Z,20.09
2022-12-22T10:17:34.614Z,20.11
2022-12-22T10:18:36.346Z,20.28
2022-12-22T10:19:38.033Z,20.39
2022-12-22T10:20:40.707Z,20.41
2022-12-22T10:21:46.654Z,20.51
2022-12-22T10:22:51.335Z,20.60
2022-12-22T10:23:53.243Z,20.61
2022-12-22T10:24:55.424Z,20.62
2022-12-22T10:27:25.849Z,20.68
2022-12-22T10:28:35.850Z,20.68
2022-12-22T10:29:37.755Z,20.65
2022-12-22T10:30:40.942Z,20.56
2022-12-22T10:32:04.413Z,20.53
2022-12-22T10:33:17.248Z,20.44
2022-12-22T10:34:20.413Z,20.27
2022-12-22T10:35:22.134Z,20.42
2022-12-22T10:36:33.394Z,20.38
2022-12-22T10:37:40.172Z,20.43
2022-12-22T10:38:59.616Z,20.33
2022-12-22T10:40:15.734Z,19.94
2022-12-22T10:41:20.917Z,19.61
2022-12-22T10:42:22.732Z,19.64
2022-12-22T10:43:34.581Z,19.75
2022-12-22T10:44:38.530Z,19.74
2022-12-22T10:45:48.460Z,19.75
2022-12-22T10:46:52.912Z,19.68
2022-12-22T10:47:57.497Z,19.74
2022-12-22T10:49:19.268Z,19.76
2022-12-22T10:50:22.294Z,19.70
2022-12-22T10:51:25.505Z,19.64
2022-12-22T10:52:31.951Z,19.62
2022-12-22T10:53:47.236Z,19.55
2022-12-22T10:54:49.399Z,19.22
2022-12-22T10:56:06.383Z,19.23
2022-12-22T10:57:14.099Z,19.22
2022-12-22T10:58:21.809Z,19.05
2022-12-22T10:59:24.235Z,18.89
2022-12-22T11:00:29.205Z,18.79
2022-12-22T11:01:36.499Z,18.62
2022-12-22T11:02:39.489Z,18.58
2022-12-22T11:03:41.468Z,18.64
2022-12-22T11:04:43.244Z,18.63
2022-12-22T11:05:45.140Z,18.31
2022-12-22T11:06:46.967Z,18.08
2022-12-22T11:07:48.925Z,17.92
2022-12-22T11:08:52.041Z,17.68
2022-12-22T11:09:53.959Z,17.57
2022-12-22T11:11:10.189Z,17.50
2022-12-22T11:12:26.733Z,17.25
2022-12-22T11:13:46.533Z,17.25
2022-12-22T11:15:03.627Z,16.89
2022-12-22T11:16:40.661Z,16.84
2022-12-22T11:17:55.501Z,16.65
2022-12-22T11:19:21.200Z,16.36
2022-12-22T11:20:56.766Z,15.99
2022-12-22T11:22:25.805Z,15.68
2022-12-22T11:23:45.984Z,15.50
2022-12-22T11:25:15.121Z,15.21
2022-12-22T11:26:46.936Z,14.93
2022-12-22T11:28:23.119Z,14.54
2022-12-22T11:29:36.913Z,14.02
2022-12-22T11:31:06.075Z,13.70
2022-12-22T11:32:07.860Z,13.30
2022-12-22T11:33:33.215Z,13.24
2022-12-22T11:34:49.916Z,13.13
2022-12-22T11:35:56.648Z,13.13
2022-12-22T11:37:10.411Z,13.04
2022-12-22T11:38:15.030Z,12.92
2022-12-22T11:39:37.031Z,12.79
2022-12-22T11:40:46.991Z,12.59
2022-12-22T11:42:19.845Z,12.61
2022-12-22T11:43:24.321Z,12.61
2022-12-22T11:44:35.163Z,12.59
2022-12-22T11:45:52.088Z,12.55
2022-12-22T11:47:25.542Z,12.42
2022-12-22T11:48:45.487Z,12.33
2022-12-22T11:49:53.179Z,12.18
2022-12-22T11:51:14.429Z,11.98
2022-12-22T11:52:55.928Z,11.80
2022-12-22T11:54:26.903Z,11.72
2022-12-22T11:55:34.805Z,11.47
2022-12-22T11:56:40.988Z,11.37
2022-12-22T11:57:53.869Z,11.30
2022-12-22T11:59:07.829Z,11.29
2022-12-22T12:00:18.369Z,10.93
2022-12-22T12:01:39.105Z,10.97
2022-12-22T12:03:05.041Z,10.83
2022-12-22T12:04:31.429Z,10.70
2022-12-22T12:06:02.606Z,10.63
2022-12-22T12:07:25.973Z,10.52
2022-12-22T12:08:59.300Z,10.54
2022-12-22T12:10:18.857Z,10.51
2022-12-22T12:11:26.445Z,10.58
2022-12-22T12:12:40.031Z,10.57
2022-12-22T12:13:57.147Z,10.43
2022-12-22T12:15:24.440Z,10.24
2022-12-22T12:16:35.288Z,10.02
2022-12-22T12:18:01.293Z,9.93
2022-12-22T12:19:28.528Z,9.88
2022-12-22T12:20:52.083Z,9.92
2022-12-22T12:22:06.249Z,9.91
2022-12-22T12:23:35.304Z,9.90
2022-12-22T12:24:42.736Z,9.82
2022-12-22T12:25:55.833Z,9.76
2022-12-22T12:27:18.986Z,9.89
2022-12-22T12:28:40.424Z,9.87
2022-12-22T12:30:28.555Z,9.89
2022-12-22T12:31:27.039Z,9.88
2022-12-22T12:32:37.604Z,9.97
2022-12-22T12:33:48.279Z,9.83
2022-12-22T12:34:57.993Z,9.80
2022-12-22T12:36:09.284Z,9.75
2022-12-22T12:37:26.369Z,9.78
2022-12-22T12:40:50.795Z,9.62
2022-12-22T12:42:22.038Z,9.60
2022-12-22T12:43:24.536Z,9.47
2022-12-22T12:44:34.439Z,9.49
2022-12-22T12:45:38.288Z,9.46
2022-12-22T12:46:52.515Z,9.44
2022-12-22T12:48:14.754Z,9.36
2022-12-22T12:49:36.487Z,9.45
2022-12-22T12:50:38.530Z,9.39
2022-12-22T12:51:50.163Z,9.32
2022-12-22T12:52:51.855Z,9.41
2022-12-22T12:54:34.045Z,9.40
2022-12-22T12:55:38.816Z,9.28
2022-12-22T12:56:58.757Z,9.25
2022-12-22T12:58:03.597Z,9.09
2022-12-22T12:59:07.684Z,9.04
2022-12-22T13:00:35.440Z,8.97
2022-12-22T13:01:40.331Z,8.89
2022-12-22T13:02:57.162Z,8.81
2022-12-22T13:04:04.605Z,8.84
2022-12-22T13:05:12.839Z,8.94
2022-12-22T13:06:59.633Z,8.97
2022-12-22T13:08:10.292Z,8.98
2022-12-22T13:10:54.373Z,9.19
2022-12-22T13:12:13.253Z,9.17
2022-12-22T13:13:25.749Z,9.21
2022-12-22T13:14:59.251Z,9.26
2022-12-22T13:16:04.253Z,9.30
2022-12-22T13:17:50.485Z,9.30
2022-12-22T13:18:53.044Z,9.19
2022-12-22T13:19:55.901Z,9.18
2022-12-22T13:22:53.303Z,9.36
2022-12-22T13:24:22.877Z,9.37
2022-12-22T13:25:17.046Z,9.40
2022-12-22T13:26:22.870Z,9.46
2022-12-22T13:27:24.702Z,9.42
2022-12-22T13:28:27.731Z,9.39
2022-12-22T13:29:49.343Z,9.39
2022-12-22T13:30:57.980Z,9.43
2022-12-22T13:32:14.433Z,9.44
2022-12-22T13:33:21.143Z,9.42
2022-12-22T13:34:23.049Z,9.34
2022-12-22T13:35:43.082Z,9.27
2022-12-22T13:36:51.561Z,9.22
2022-12-22T13:37:57.620Z,9.07
2022-12-22T13:39:05.657Z,9.28
2022-12-22T13:40:18.494Z,9.32
2022-12-22T13:41:27.131Z,9.29
2022-12-22T13:42:29.236Z,9.37
2022-12-22T13:43:33.388Z,9.42
2022-12-22T13:44:35.450Z,9.42
2022-12-22T13:45:48.203Z,9.49
2022-12-22T13:46:49.992Z,9.50
2022-12-22T13:47:52.777Z,9.50
2022-12-22T13:48:57.552Z,9.48
2022-12-22T13:50:08.983Z,9.42
2022-12-22T13:51:22.568Z,9.45
2022-12-22T13:52:24.469Z,9.42
2022-12-22T13:54:08.530Z,9.47
2022-12-22T13:55:13.946Z,9.33
2022-12-22T13:56:37.936Z,9.28
2022-12-22T13:57:39.786Z,9.17
2022-12-22T13:58:46.746Z,9.18
2022-12-22T13:59:51.764Z,8.96
2022-12-22T14:01:12.032Z,8.84
2022-12-22T14:02:16.976Z,8.67
2022-12-22T14:03:49.580Z,8.65
2022-12-22T14:04:45.997Z,8.50
2022-12-22T14:05:49.644Z,8.44
2022-12-22T14:06:51.393Z,8.24
2022-12-22T14:08:01.555Z,8.24
2022-12-22T14:09:24.115Z,8.27
2022-12-22T14:10:28.615Z,8.31
2022-12-22T14:11:31.605Z,8.24
2022-12-22T14:12:51.642Z,8.09
2022-12-22T14:13:53.396Z,8.02
2022-12-22T14:14:56.350Z,8.01
2022-12-22T14:16:02.554Z,8.00
2022-12-22T14:17:05.115Z,8.01
2022-12-22T14:18:06.928Z,7.99
2022-12-22T14:19:15.082Z,8.02
2022-12-22T14:20:24.284Z,8.06
2022-12-22T14:21:26.848Z,8.03
2022-12-22T14:22:35.082Z,8.02
2022-12-22T14:23:42.805Z,8.02
2022-12-22T14:25:12.348Z,8.00
2022-12-22T14:26:19.722Z,7.88
2022-12-22T14:27:41.420Z,7.76
2022-12-22T14:28:50.871Z,7.60
2022-12-22T14:29:52.853Z,7.65
2022-12-22T14:30:59.604Z,7.55
2022-12-22T14:32:03.823Z,7.38
2022-12-22T14:33:23.982Z,7.29
2022-12-22T14:34:33.652Z,7.31
2022-12-22T14:35:35.539Z,7.37
2022-12-22T14:36:41.913Z,7.39
2022-12-22T14:37:43.669Z,7.37
2022-12-22T14:38:48.320Z,7.18
2022-12-22T14:39:55.721Z,7.21
2022-12-22T14:40:58.116Z,7.25
2022-12-22T14:42:04.231Z,7.23
2022-12-22T14:43:19.618Z,7.23
2022-12-22T14:44:32.871Z,7.24
2022-12-22T14:45:34.636Z,7.23
2022-12-22T14:46:39.144Z,7.23
2022-12-22T14:47:41.214Z,7.16
2022-12-22T14:48:47.154Z,7.05
2022-12-22T14:49:59.023Z,6.97
2022-12-22T14:51:02.311Z,6.92
2022-12-22T14:52:14.332Z,6.89
2022-12-22T14:53:27.252Z,6.88
2022-12-22T14:54:29.278Z,6.85
2022-12-22T14:55:42.066Z,6.88
2022-12-22T14:56:49.612Z,6.87
2022-12-22T14:57:59.319Z,6.77
2022-12-22T14:59:26.531Z,6.83
2022-12-22T15:00:28.643Z,6.83
2022-12-22T15:01:30.629Z,6.79
2022-12-22T15:02:50.088Z,6.76
2022-12-22T15:04:15.443Z,6.70
2022-12-22T15:05:29.282Z,6.51
2022-12-22T15:06:39.264Z,6.45
2022-12-22T15:08:08.370Z,6.36
2022-12-22T15:09:13.529Z,6.34
2022-12-22T15:10:16.653Z,6.21
2022-12-22T15:11:20.521Z,6.14
2022-12-22T15:12:22.225Z,6.06
2022-12-22T15:13:24.776Z,5.94
2022-12-22T15:14:36.703Z,5.90
2022-12-22T15:15:40.399Z,5.91
2022-12-22T15:16:42.900Z,5.73
2022-12-22T15:17:47.438Z,5.72
2022-12-22T15:18:50.804Z,5.74
2022-12-22T15:19:57.976Z,5.72
2022-12-22T15:20:59.852Z,5.73